Pierceville, Kansas
Current Conditions -  °F | °C
As of 8:54 PM on Sunday 21 Dec 2014 (Local Time) from KGCK Reporting Station
Scattered Clouds Scattered Clouds  
Wind Chill: 30°   Ceiling: Unl
Heat Index: 36°   Visibility: 9mi
Dew Point: 34°   Wind: 8mph
Humidity: 93%   Direction: 170°S
Pressure: 29.56"   Gusts: NA
Location:  37.88°N, 100.68°W
Report Text: KGCK 220254Z AUTO 17007KT 9SM SCT110 02/01 A2956 RMK AO2 SLP018 T00220011 51001
Loading
Personal Weather Stations






























Interactive Weather Map New forecast layout! Learn more

10-Day Weather Forecast

Advertisements
Track Severe Weather on mobile